Time;durP1;ratioP1;P1;durP2;ratioP2;P2;SDS_P1;SDS_P2;PMS_P1;PMS_P2;Temp;Humidity;BMP_temperature;BMP_pressure;BME280_temperature;BME280_humidity;BME280_pressure;Samples;Min_cycle;Max_cycle;Signal;HPM_P1;HPM_P2
2022/08/26 00:02:21;;;;;;;11.95;6.40;;;;;;;20.54;90.27;101424.69;5030547;28;20461;-72
2022/08/26 00:04:46;;;;;;;15.20;6.75;;;;;;;20.46;91.00;101426.00;5032023;28;20029;-72
2022/08/26 00:07:11;;;;;;;14.23;7.70;;;;;;;20.41;90.93;101428.91;5031945;28;20037;-72
2022/08/26 00:09:37;;;;;;;12.77;7.88;;;;;;;20.38;91.07;101428.25;5030635;28;20056;-72
2022/08/26 00:12:02;;;;;;;14.95;8.07;;;;;;;20.35;91.23;101429.25;5031533;28;20036;-72
2022/08/26 00:14:31;;;;;;;15.35;8.40;;;;;;;20.38;90.85;101422.94;5030678;28;20104;-72
2022/08/26 00:16:57;;;;;;;15.77;8.00;;;;;;;20.28;91.70;101431.38;5031009;28;20541;-72
2022/08/26 00:19:22;;;;;;;14.10;7.68;;;;;;;20.30;91.37;101439.22;5033700;28;20554;-72
2022/08/26 00:21:48;;;;;;;14.73;7.28;;;;;;;20.24;91.53;101435.16;5042061;28;20033;-72
2022/08/26 00:24:14;;;;;;;13.05;7.30;;;;;;;20.26;91.79;101438.53;5028631;28;20084;-72
2022/08/26 00:26:40;;;;;;;14.45;7.70;;;;;;;20.21;92.07;101430.03;5030359;28;20017;-72
2022/08/26 00:29:05;;;;;;;13.18;7.25;;;;;;;20.22;91.78;101428.22;5031192;28;20473;-72
2022/08/26 00:31:31;;;;;;;14.95;7.68;;;;;;;20.27;91.57;101434.97;5030365;28;20030;-72
2022/08/26 00:33:56;;;;;;;11.95;8.63;;;;;;;20.21;91.00;101432.66;5030745;28;20539;-72
2022/08/26 00:36:22;;;;;;;13.25;7.28;;;;;;;20.16;92.04;101432.03;5039291;28;20043;-72
2022/08/26 00:38:48;;;;;;;13.98;7.60;;;;;;;20.17;92.24;101439.03;5037217;28;20014;-72
2022/08/26 00:41:13;;;;;;;16.33;7.82;;;;;;;20.21;92.18;101445.91;5031300;28;20041;-72
2022/08/26 00:43:38;;;;;;;12.05;7.38;;;;;;;20.23;91.79;101446.66;5031564;28;20021;-72
2022/08/26 00:46:09;;;;;;;19.15;6.88;;;;;;;20.27;91.49;101442.94;5031751;28;20049;-72
2022/08/26 00:48:36;;;;;;;12.07;7.13;;;;;;;20.24;91.63;101436.91;5033366;28;21125;-72
2022/08/26 00:51:13;;;;;;;18.80;7.88;;;;;;;20.25;91.27;101433.34;5030932;28;20412;-72
2022/08/26 00:53:46;;;;;;;12.32;7.18;;;;;;;20.27;91.71;101431.44;5029499;28;20033;-72
2022/08/26 00:56:32;;;;;;;;;;;;;;;20.30;89.47;101433.94;5030679;28;20021;-72
2022/08/26 00:59:03;;;;;;;11.38;6.68;;;;;;;20.22;91.49;101433.53;5030441;28;20373;-72
2022/08/26 01:01:29;;;;;;;11.55;6.70;;;;;;;20.28;91.42;101433.19;5030808;28;20040;-72
2022/08/26 01:03:55;;;;;;;12.68;6.82;;;;;;;20.24;91.46;101440.44;5030677;28;20100;-72
2022/08/26 01:06:23;;;;;;;13.45;6.88;;;;;;;20.24;91.43;101429.84;5030632;28;20116;-72
2022/08/26 01:08:49;;;;;;;12.25;7.05;;;;;;;20.29;91.57;101446.31;5030463;28;20022;-72
2022/08/26 01:11:15;;;;;;;14.23;7.38;;;;;;;20.26;91.26;101454.44;5029609;28;20029;-72
2022/08/26 01:13:41;;;;;;;10.85;6.45;;;;;;;20.25;91.64;101442.13;5029330;28;20026;-72
2022/08/26 01:16:11;;;;;;;14.65;6.47;;;;;;;20.23;91.63;101444.00;5031948;28;20030;-72
2022/08/26 01:18:40;;;;;;;12.15;6.38;;;;;;;20.22;91.53;101444.97;5028692;28;20026;-71
2022/08/26 01:21:30;;;;;;;13.75;5.93;;;;;;;20.22;90.87;101447.59;5027642;28;20095;-72
2022/08/26 01:23:57;;;;;;;11.85;6.00;;;;;;;20.21;91.51;101434.44;5029356;28;20561;-72
2022/08/26 01:26:35;;;;;;;12.45;6.78;;;;;;;20.21;91.11;101435.31;5030476;28;20037;-72
2022/08/26 01:29:04;;;;;;;12.30;6.07;;;;;;;20.28;91.33;101441.13;5031783;28;20033;-72
2022/08/26 01:31:34;;;;;;;12.02;6.05;;;;;;;20.25;90.91;101436.84;5030322;28;20036;-72
2022/08/26 01:34:13;;;;;;;11.73;5.70;;;;;;;20.26;90.54;101435.06;5023851;28;20052;-72
2022/08/26 01:36:39;;;;;;;9.43;6.13;;;;;;;20.24;91.41;101437.78;5030704;28;20485;-72
2022/08/26 01:39:05;;;;;;;14.65;6.68;;;;;;;20.17;91.21;101419.66;5038737;28;20025;-72
2022/08/26 01:41:31;;;;;;;15.57;6.22;;;;;;;20.15;91.42;101427.69;5029968;28;20033;-72
2022/08/26 01:43:59;;;;;;;10.57;6.22;;;;;;;20.20;91.21;101445.97;5031137;28;20026;-72
2022/08/26 01:46:27;;;;;;;12.40;6.10;;;;;;;20.11;91.04;101434.97;5032747;28;20041;-72
2022/08/26 01:48:54;;;;;;;11.35;5.93;;;;;;;20.16;91.53;101439.13;5028692;28;20594;-72
2022/08/26 01:51:22;;;;;;;11.35;5.97;;;;;;;20.19;91.13;101445.13;5030429;28;20611;-72
2022/08/26 01:53:47;;;;;;;9.73;6.10;;;;;;;20.18;91.33;101437.28;5043704;28;20384;-72
2022/08/26 01:56:13;;;;;;;10.73;5.70;;;;;;;20.19;91.02;101447.75;5047016;28;20029;-72
2022/08/26 01:58:44;;;;;;;9.40;5.28;;;;;;;20.10;91.72;101441.16;5037474;28;20030;-72
2022/08/26 02:01:09;;;;;;;12.05;5.25;;;;;;;20.11;91.14;101442.06;5026575;28;20433;-72
2022/08/26 02:03:45;;;;;;;13.18;5.85;;;;;;;20.11;91.21;101439.41;5032075;28;20021;-72
2022/08/26 02:06:10;;;;;;;12.80;5.88;;;;;;;20.09;91.15;101447.41;5043113;28;20037;-72
2022/08/26 02:08:43;;;;;;;8.88;4.78;;;;;;;20.02;91.38;101439.88;5032965;28;20029;-72
2022/08/26 02:11:09;;;;;;;10.18;4.28;;;;;;;20.09;91.32;101443.91;5042026;28;20587;-72
2022/08/26 02:13:40;;;;;;;13.55;4.60;;;;;;;20.09;91.47;101459.78;5043520;28;20143;-72
2022/08/26 02:16:07;;;;;;;7.90;4.00;;;;;;;20.10;91.64;101461.50;5046153;28;20474;-72
2022/08/26 02:18:37;;;;;;;9.63;3.85;;;;;;;20.05;91.61;101460.91;5042850;28;20465;-71
2022/08/26 02:21:03;;;;;;;10.35;4.72;;;;;;;20.05;90.61;101460.91;5042475;28;20086;-72
2022/08/26 02:23:28;;;;;;;9.43;3.95;;;;;;;20.01;91.31;101467.28;5044293;28;20033;-72
2022/08/26 02:26:14;;;;;;;9.07;3.70;;;;;;;20.03;90.90;101471.56;5041661;28;20025;-72
2022/08/26 02:28:55;;;;;;;7.05;3.65;;;;;;;20.00;91.60;101469.06;5036971;28;20048;-72
2022/08/26 02:31:21;;;;;;;10.27;3.42;;;;;;;20.00;91.46;101468.22;5040519;28;20037;-72
2022/08/26 02:33:46;;;;;;;10.25;3.42;;;;;;;19.97;91.68;101476.31;5037800;28;20055;-71
2022/08/26 02:36:16;;;;;;;12.18;4.00;;;;;;;20.00;90.81;101473.50;5045353;28;20032;-72
2022/08/26 02:38:42;;;;;;;8.00;3.65;;;;;;;19.96;91.34;101478.13;5045702;28;20033;-72
2022/08/26 02:41:07;;;;;;;6.20;3.10;;;;;;;19.92;91.08;101468.63;5043723;28;20036;-72
2022/08/26 02:43:32;;;;;;;10.73;3.83;;;;;;;19.80;91.48;101456.88;5044322;28;20040;-72
2022/08/26 02:45:58;;;;;;;9.68;3.40;;;;;;;19.85;91.41;101476.03;5051448;28;20041;-72
2022/08/26 02:48:23;;;;;;;7.93;3.55;;;;;;;19.78;91.85;101469.38;5045306;28;20026;-72
2022/08/26 02:50:49;;;;;;;10.80;3.90;;;;;;;19.75;91.96;101466.88;5041359;28;20033;-72
2022/08/26 02:53:14;;;;;;;9.20;3.70;;;;;;;19.70;92.00;101466.25;5045912;28;20029;-72
2022/08/26 02:55:41;;;;;;;8.48;3.45;;;;;;;19.68;92.61;101470.75;5040364;28;20020;-72
2022/08/26 02:58:07;;;;;;;8.88;3.40;;;;;;;19.68;92.61;101469.91;5046808;28;20017;-71
2022/08/26 03:00:35;;;;;;;10.40;4.07;;;;;;;19.62;92.81;101471.06;5038142;28;20076;-72
2022/08/26 03:03:01;;;;;;;6.75;4.20;;;;;;;19.66;92.86;101480.56;5042524;28;20021;-72
2022/08/26 03:05:26;;;;;;;9.80;4.22;;;;;;;19.67;92.69;101466.41;5048239;28;20033;-72
2022/08/26 03:07:51;;;;;;;8.23;3.90;;;;;;;19.69;92.36;101468.97;5043430;28;20022;-72
2022/08/26 03:10:17;;;;;;;7.85;3.70;;;;;;;19.68;92.91;101465.44;5041773;28;20066;-72
2022/08/26 03:12:44;;;;;;;7.78;3.85;;;;;;;19.68;92.75;101470.75;5041691;28;20112;-72
2022/08/26 03:15:11;;;;;;;7.13;3.75;;;;;;;19.73;92.99;101473.16;5045379;28;20506;-72
2022/08/26 03:17:37;;;;;;;11.73;4.50;;;;;;;19.75;92.62;101461.59;5040302;28;20116;-72
2022/08/26 03:20:08;;;;;;;7.80;4.35;;;;;;;19.71;92.92;101470.59;5034216;28;20031;-72
2022/08/26 03:22:33;;;;;;;9.57;4.03;;;;;;;19.66;93.58;101464.69;5039056;28;20036;-72
2022/08/26 03:24:58;;;;;;;9.30;4.15;;;;;;;19.65;93.66;101462.97;5050297;28;20025;-72
2022/08/26 03:27:24;;;;;;;9.15;4.15;;;;;;;19.60;93.61;101459.69;5050278;28;20078;-72
2022/08/26 03:32:33;;;;;;;8.00;4.15;;;;;;;19.76;92.70;101475.66;5038378;28;20440;-72
2022/08/26 03:34:58;;;;;;;11.55;4.80;;;;;;;19.74;92.97;101470.44;5041554;28;20025;-72
2022/08/26 03:37:23;;;;;;;8.65;4.30;;;;;;;19.80;92.87;101477.19;5027512;28;20021;-72
2022/08/26 03:39:49;;;;;;;6.07;4.10;;;;;;;19.79;92.53;101473.72;5035566;28;20018;-72
2022/08/26 03:42:15;;;;;;;9.35;3.65;;;;;;;19.77;91.84;101470.28;5039723;28;20074;-72
2022/08/26 03:44:40;;;;;;;8.32;3.97;;;;;;;19.77;92.42;101472.91;5039848;28;20033;-73
2022/08/26 03:47:06;;;;;;;11.55;3.65;;;;;;;19.74;92.62;101474.88;5042258;28;20036;-72
2022/08/26 03:49:34;;;;;;;12.68;3.70;;;;;;;19.79;92.40;101481.66;5047271;28;20021;-72
2022/08/26 03:52:00;;;;;;;7.90;3.38;;;;;;;19.76;91.77;101476.50;5038689;28;20027;-72
2022/08/26 03:54:25;;;;;;;10.75;3.38;;;;;;;19.75;92.38;101480.09;5040648;28;20029;-72
2022/08/26 03:56:51;;;;;;;9.55;3.22;;;;;;;19.77;92.47;101483.50;5039630;28;20021;-72
2022/08/26 03:59:16;;;;;;;6.07;3.40;;;;;;;19.76;91.89;101483.59;5044857;28;20082;-72
2022/08/26 04:01:41;;;;;;;10.73;3.30;;;;;;;19.73;91.58;101481.09;5049657;28;20013;-72
2022/08/26 04:04:07;;;;;;;8.27;3.08;;;;;;;19.72;92.06;101477.63;5049034;28;20452;-72
2022/08/26 04:06:36;;;;;;;6.30;3.05;;;;;;;19.76;91.83;101483.59;5036726;28;20540;-72
2022/08/26 04:09:06;;;;;;;8.20;3.47;;;;;;;19.71;92.26;101480.31;5042192;28;20017;-72
2022/08/26 04:11:34;;;;;;;6.07;3.30;;;;;;;19.73;92.26;101484.59;5052068;28;20063;-72
2022/08/26 04:14:04;;;;;;;9.48;3.30;;;;;;;19.70;92.32;101476.81;5052358;28;20020;-72
2022/08/26 04:16:30;;;;;;;7.43;3.13;;;;;;;19.72;92.56;101484.66;5051473;28;20052;-72
2022/08/26 04:18:56;;;;;;;9.77;2.72;;;;;;;19.74;92.45;101481.00;5048536;28;20048;-72
2022/08/26 04:21:22;;;;;;;8.02;2.65;;;;;;;19.76;92.11;101484.44;5045710;28;20048;-72
2022/08/26 04:23:48;;;;;;;10.32;3.72;;;;;;;19.78;91.90;101476.41;5039077;28;20029;-72
2022/08/26 04:26:16;;;;;;;7.72;3.00;;;;;;;19.76;92.33;101473.88;5051941;28;20132;-72
2022/08/26 04:28:41;;;;;;;4.40;3.00;;;;;;;19.72;92.19;101474.09;5052373;28;20040;-72
2022/08/26 04:31:11;;;;;;;9.50;3.17;;;;;;;19.68;92.51;101477.81;5051333;28;20063;-72
2022/08/26 04:33:36;;;;;;;8.35;3.25;;;;;;;19.62;92.63;101474.56;5051540;28;20031;-72
2022/08/26 04:36:03;;;;;;;10.15;3.50;;;;;;;19.63;92.57;101468.34;5047397;28;20431;-72
2022/08/26 04:38:29;;;;;;;6.97;2.58;;;;;;;19.59;92.84;101468.56;5032303;28;20112;-72
2022/08/26 04:40:54;;;;;;;6.75;2.95;;;;;;;19.59;92.60;101472.06;5038395;28;20092;-72
2022/08/26 04:43:19;;;;;;;7.72;2.55;;;;;;;19.59;92.90;101487.06;5037207;28;20752;-72
2022/08/26 04:45:45;;;;;;;11.38;2.90;;;;;;;19.54;92.93;101482.00;5037413;28;20065;-72
2022/08/26 04:48:10;;;;;;;7.57;2.92;;;;;;;19.61;92.85;101490.47;5041045;28;20548;-72
2022/08/26 04:50:36;;;;;;;9.43;2.97;;;;;;;19.52;93.07;101483.00;5041663;28;20068;-72
2022/08/26 04:53:03;;;;;;;9.10;3.22;;;;;;;19.50;92.74;101490.19;5032914;28;20367;-72
2022/08/26 04:55:29;;;;;;;7.00;2.70;;;;;;;19.45;93.58;101484.25;5040161;28;20030;-72
2022/08/26 04:57:56;;;;;;;7.43;2.75;;;;;;;19.38;94.05;101481.91;5046845;28;20041;-72
2022/08/26 05:00:21;;;;;;;6.30;2.75;;;;;;;19.42;93.84;101488.78;5046424;28;20392;-72
2022/08/26 05:02:47;;;;;;;5.82;2.67;;;;;;;19.45;93.43;101486.91;5035162;28;20469;-72
2022/08/26 05:05:12;;;;;;;11.00;2.45;;;;;;;19.54;93.48;101487.28;5036697;28;20106;-72
2022/08/26 05:07:38;;;;;;;4.55;2.80;;;;;;;19.57;93.21;101492.44;5042221;28;20025;-72
2022/08/26 05:10:04;;;;;;;9.30;3.05;;;;;;;19.64;92.97;101500.94;5050339;28;20108;-72
2022/08/26 05:12:30;;;;;;;6.95;3.22;;;;;;;19.66;92.69;101493.78;5045912;28;20443;-72
2022/08/26 05:14:56;;;;;;;8.52;2.72;;;;;;;19.75;92.58;101493.31;5047427;28;20451;-72
2022/08/26 05:17:21;;;;;;;7.65;2.88;;;;;;;19.80;92.96;101493.06;5040528;28;20033;-72
2022/08/26 05:19:46;;;;;;;6.72;2.53;;;;;;;19.82;92.29;101492.06;5047828;28;20074;-72
2022/08/26 05:22:13;;;;;;;8.80;2.72;;;;;;;19.79;92.29;101488.72;5037896;28;20029;-72
2022/08/26 05:24:39;;;;;;;9.38;2.80;;;;;;;19.81;92.08;101487.69;5044520;28;20021;-72
2022/08/26 05:27:06;;;;;;;7.68;2.90;;;;;;;19.88;91.67;101494.41;5045404;28;20021;-72
2022/08/26 05:29:31;;;;;;;10.82;2.70;;;;;;;19.89;91.21;101497.91;5040058;28;20468;-72
2022/08/26 05:31:56;;;;;;;6.82;2.88;;;;;;;19.94;91.44;101501.13;5032146;28;20040;-72
2022/08/26 05:34:22;;;;;;;6.53;2.80;;;;;;;19.94;91.08;101497.66;5032353;28;20026;-72
2022/08/26 05:36:47;;;;;;;6.10;2.33;;;;;;;19.98;90.99;101494.78;5045791;28;20029;-72
2022/08/26 05:39:12;;;;;;;8.18;2.22;;;;;;;19.98;91.33;101497.41;5039398;28;20036;-72
2022/08/26 05:41:40;;;;;;;8.32;2.53;;;;;;;19.97;91.33;101502.78;5043921;28;20021;-72
2022/08/26 05:44:09;;;;;;;7.00;2.53;;;;;;;19.95;91.30;101505.53;5038833;28;20025;-72
2022/08/26 05:46:35;;;;;;;5.45;2.72;;;;;;;19.99;91.62;101506.22;5046086;28;20143;-72
2022/08/26 05:49:02;;;;;;;8.48;2.53;;;;;;;20.04;91.23;101506.81;5039046;28;20039;-73
2022/08/26 05:51:28;;;;;;;8.55;2.78;;;;;;;19.99;90.61;101509.72;5054776;28;20039;-72
2022/08/26 05:53:54;;;;;;;8.43;2.63;;;;;;;20.02;91.29;101519.28;5052674;28;20033;-72
2022/08/26 05:56:23;;;;;;;8.55;2.55;;;;;;;20.02;90.33;101511.34;5054589;28;20029;-72
2022/08/26 05:58:49;;;;;;;6.45;2.03;;;;;;;20.13;89.91;101529.31;5037666;28;20029;-71
2022/08/26 06:01:18;;;;;;;8.43;2.42;;;;;;;20.07;89.61;101514.59;5041416;28;20116;-71
2022/08/26 06:03:46;;;;;;;8.80;2.25;;;;;;;20.14;89.85;101526.56;5035827;28;20034;-72
2022/08/26 06:06:18;;;;;;;5.25;1.98;;;;;;;20.19;90.21;101534.28;5049784;28;20029;-72
2022/08/26 06:08:44;;;;;;;6.55;2.10;;;;;;;20.27;89.83;101538.25;5043636;28;20037;-72
2022/08/26 06:11:13;;;;;;;7.50;2.03;;;;;;;20.33;88.99;101537.88;5049397;28;20431;-72
2022/08/26 06:13:39;;;;;;;7.10;2.10;;;;;;;20.32;88.54;101540.63;5045001;28;20048;-72
2022/08/26 06:16:08;;;;;;;6.50;2.22;;;;;;;20.32;88.70;101537.97;5034578;28;20128;-72
2022/08/26 06:18:37;;;;;;;8.10;2.08;;;;;;;20.37;88.10;101543.03;5045047;28;20083;-72
2022/08/26 06:21:16;;;;;;;4.95;2.03;;;;;;;20.44;88.05;101544.44;5041745;28;21729;-72
2022/08/26 06:26:27;;;;;;;7.22;2.10;;;;;;;20.51;87.15;101553.78;5040606;28;20119;-72
2022/08/26 06:28:52;;;;;;;8.75;1.75;;;;;;;20.56;86.19;101541.97;5049489;28;20033;-72
2022/08/26 06:31:18;;;;;;;6.97;1.83;;;;;;;20.61;86.66;101548.84;5034095;28;20119;-72
2022/08/26 06:33:44;;;;;;;7.35;1.83;;;;;;;20.56;86.12;101547.28;5046372;28;20028;-72
2022/08/26 06:36:20;;;;;;;5.47;1.98;;;;;;;20.63;86.38;101544.28;5032357;28;20021;-72
2022/08/26 06:38:47;;;;;;;6.45;1.85;;;;;;;20.70;85.70;101545.66;5039639;28;20024;-72
2022/08/26 06:41:13;;;;;;;6.07;1.58;;;;;;;20.80;85.61;101552.19;5029282;28;20528;-72
2022/08/26 06:43:38;;;;;;;5.22;1.60;;;;;;;20.90;84.79;101547.25;5047900;28;20025;-73
2022/08/26 06:46:08;;;;;;;6.93;1.70;;;;;;;20.95;84.48;101553.13;5041018;28;20049;-73
2022/08/26 06:48:34;;;;;;;6.28;1.60;;;;;;;20.99;84.12;101558.19;5051271;28;20558;-73
2022/08/26 06:51:15;;;;;;;3.38;1.40;;;;;;;20.96;83.74;101565.44;5048271;28;20116;-72
2022/08/26 06:53:44;;;;;;;7.82;1.70;;;;;;;20.97;84.28;101564.50;5047475;28;20465;-73
2022/08/26 06:56:10;;;;;;;6.82;1.60;;;;;;;20.95;83.96;101566.38;5041803;28;20079;-72
2022/08/26 06:58:38;;;;;;;3.47;1.50;;;;;;;20.90;83.62;101563.16;5045812;28;20040;-73
2022/08/26 07:01:12;;;;;;;7.55;1.85;;;;;;;20.90;83.68;101565.78;5036128;28;20052;-72
2022/08/26 07:03:38;;;;;;;4.78;1.60;;;;;;;21.01;83.56;101558.09;5053696;28;20078;-74
2022/08/26 07:06:03;;;;;;;5.72;2.03;;;;;;;21.12;83.55;101562.78;5052727;28;20040;-73
2022/08/26 07:08:29;;;;;;;8.65;1.90;;;;;;;21.10;83.53;101568.19;5053256;28;20025;-73
2022/08/26 07:10:55;;;;;;;7.53;1.58;;;;;;;21.11;83.01;101569.88;5033399;28;20061;-72
2022/08/26 07:13:22;;;;;;;5.18;1.58;;;;;;;21.07;82.01;101563.06;5033600;28;20034;-73
2022/08/26 07:15:48;;;;;;;5.97;1.50;;;;;;;21.06;82.82;101564.00;5043642;28;20045;-73
2022/08/26 07:18:13;;;;;;;6.90;1.30;;;;;;;21.13;83.58;101560.06;5052643;28;20504;-72
2022/08/26 07:20:40;;;;;;;2.95;1.30;;;;;;;21.24;82.03;101557.66;5044350;28;20466;-72
2022/08/26 07:23:10;;;;;;;9.80;1.55;;;;;;;21.32;81.36;101567.84;5046468;28;20029;-73
2022/08/26 07:25:40;;;;;;;7.03;1.38;;;;;;;21.45;81.43;101568.00;5037277;28;20412;-72
2022/08/26 07:28:06;;;;;;;9.95;1.80;;;;;;;21.54;79.95;101563.97;5029391;28;20051;-73
2022/08/26 07:30:31;;;;;;;7.13;1.65;;;;;;;21.56;80.48;101572.69;5048600;28;20081;-73
2022/08/26 07:32:58;;;;;;;7.38;1.50;;;;;;;21.63;79.84;101564.28;5045913;28;20487;-72
2022/08/26 07:35:24;;;;;;;10.02;1.67;;;;;;;21.76;79.61;101568.88;5049172;28;20365;-72
2022/08/26 07:37:50;;;;;;;19.63;2.20;;;;;;;21.83;78.57;101563.09;5045113;28;20542;-72
2022/08/26 07:40:16;;;;;;;5.35;1.70;;;;;;;21.85;78.48;101568.34;5046062;28;20115;-72
2022/08/26 07:42:41;;;;;;;7.13;1.63;;;;;;;21.92;77.78;101569.69;5040527;28;20095;-72
2022/08/26 07:45:06;;;;;;;7.18;1.52;;;;;;;22.07;77.24;101579.38;5051847;28;20041;-73
2022/08/26 07:47:32;;;;;;;4.78;1.40;;;;;;;22.18;76.90;101584.94;5044459;28;20074;-72
2022/08/26 07:49:57;;;;;;;6.10;1.45;;;;;;;22.24;76.03;101580.22;5044514;28;20033;-73
2022/08/26 07:52:25;;;;;;;6.90;1.52;;;;;;;22.22;75.95;101577.63;5046716;28;20052;-73
2022/08/26 07:54:51;;;;;;;7.60;1.67;;;;;;;22.22;74.93;101577.63;5044613;28;20024;-73
2022/08/26 07:57:16;;;;;;;3.47;1.27;;;;;;;22.28;75.48;101579.06;5047469;28;20381;-72
2022/08/26 07:59:41;;;;;;;6.38;1.50;;;;;;;22.42;75.39;101582.56;5052822;28;20017;-72
2022/08/26 08:02:06;;;;;;;8.17;1.97;;;;;;;22.51;74.72;101586.47;5032432;28;20495;-71
2022/08/26 08:04:32;;;;;;;5.15;1.45;;;;;;;22.51;73.73;101575.00;5044936;28;20275;-73
2022/08/26 08:06:57;;;;;;;4.78;1.70;;;;;;;22.59;72.20;101588.63;5041855;28;20459;-73
2022/08/26 08:09:23;;;;;;;8.02;1.90;;;;;;;22.53;72.62;101592.56;5046434;28;20435;-73
2022/08/26 08:11:48;;;;;;;5.93;1.75;;;;;;;22.55;72.68;101587.97;5039705;28;20052;-73
2022/08/26 08:14:14;;;;;;;6.55;1.80;;;;;;;22.62;73.51;101591.94;5051674;28;20461;-73
2022/08/26 08:16:40;;;;;;;4.45;1.80;;;;;;;22.73;73.46;101591.31;5032603;28;20021;-73
2022/08/26 08:19:05;;;;;;;4.63;1.42;;;;;;;22.80;73.45;101589.13;5020330;28;20021;-73
2022/08/26 08:21:30;;;;;;;4.65;1.67;;;;;;;22.75;72.58;101589.38;5012926;28;20026;-72
2022/08/26 08:23:56;;;;;;;7.13;1.60;;;;;;;22.63;70.40;101587.53;5022772;28;20475;-72
2022/08/26 08:26:23;;;;;;;4.68;1.48;;;;;;;22.70;71.36;101598.63;5013492;28;20048;-73
2022/08/26 08:28:49;;;;;;;6.97;1.60;;;;;;;22.73;69.91;101595.78;5030809;28;20021;-73
2022/08/26 08:31:20;;;;;;;5.18;1.60;;;;;;;22.66;70.95;101597.94;5031312;28;20065;-73
2022/08/26 08:33:45;;;;;;;5.35;1.80;;;;;;;22.68;69.92;101598.69;5032158;28;20071;-73
2022/08/26 08:36:13;;;;;;;5.75;1.45;;;;;;;22.67;71.09;101592.53;5037430;28;20033;-73
2022/08/26 08:38:39;;;;;;;4.20;1.42;;;;;;;22.68;70.65;101588.91;5022179;28;20478;-73
2022/08/26 08:41:04;;;;;;;3.53;1.40;;;;;;;22.81;70.49;101590.81;5032209;28;20017;-73
2022/08/26 08:43:45;;;;;;;4.32;1.55;;;;;;;22.88;68.82;101587.66;5031017;28;20473;-73
2022/08/26 08:46:15;;;;;;;7.68;1.80;;;;;;;22.94;68.18;101586.47;5028689;28;20037;-73
2022/08/26 08:48:47;;;;;;;6.40;1.60;;;;;;;23.01;69.57;101587.78;5034359;28;20025;-72
2022/08/26 08:51:26;;;;;;;5.47;1.45;;;;;;;22.99;69.15;101583.50;5030757;28;20029;-73
2022/08/26 08:53:53;;;;;;;5.25;1.42;;;;;;;22.96;68.46;101595.19;5031602;28;20144;-73
2022/08/26 08:56:29;;;;;;;1.45;1.15;;;;;;;23.05;69.28;101591.97;5021887;28;20029;-73
2022/08/26 08:59:03;;;;;;;3.95;1.25;;;;;;;23.10;68.84;101594.31;5031574;28;20039;-73
2022/08/26 09:01:58;;;;;;;6.47;1.65;;;;;;;23.04;68.61;101597.34;5049284;28;20487;-73
2022/08/26 09:04:51;;;;;;;7.25;1.70;;;;;;;22.81;68.19;101596.13;5050540;28;20025;-73
2022/08/26 09:07:22;;;;;;;6.70;1.60;;;;;;;22.50;70.85;101608.69;5031248;28;20029;-73
2022/08/26 09:09:53;;;;;;;4.63;1.50;;;;;;;22.33;71.16;101606.19;5051592;28;20040;-72
2022/08/26 09:12:36;;;;;;;5.15;1.55;;;;;;;22.31;70.72;101603.63;5034020;28;20026;-73
2022/08/26 09:15:10;;;;;;;8.75;1.60;;;;;;;22.28;70.19;101587.88;5043949;28;20025;-72
2022/08/26 09:17:51;;;;;;;6.35;1.55;;;;;;;22.50;70.77;101605.16;5035973;28;20450;-72
2022/08/26 09:20:30;;;;;;;7.30;1.60;;;;;;;22.63;70.38;101600.81;5049895;28;20094;-72
2022/08/26 09:22:56;;;;;;;4.88;1.55;;;;;;;22.82;68.65;101598.69;5041721;28;20033;-72
2022/08/26 09:25:22;;;;;;;7.53;1.60;;;;;;;23.04;68.03;101603.53;5034943;28;20173;-73
2022/08/26 09:27:50;;;;;;;5.88;1.58;;;;;;;23.28;68.31;101606.44;5045705;28;20029;-72
2022/08/26 09:30:29;;;;;;;7.13;1.58;;;;;;;23.50;67.53;101608.53;5047360;28;20033;-72
2022/08/26 09:33:01;;;;;;;3.58;1.38;;;;;;;23.48;67.23;101607.78;5052931;28;20037;-72
2022/08/26 09:35:31;;;;;;;7.22;1.50;;;;;;;23.39;67.93;101615.53;5031722;28;20022;-73
2022/08/26 09:37:57;;;;;;;7.28;1.90;;;;;;;23.35;67.19;101622.84;5045771;28;20043;-73
2022/08/26 09:40:28;;;;;;;10.10;1.77;;;;;;;23.29;67.62;101618.78;5040927;28;20029;-73
2022/08/26 09:43:14;;;;;;;5.60;1.70;;;;;;;23.33;67.97;101616.75;5050399;28;20033;-73
2022/08/26 09:45:43;;;;;;;5.85;1.60;;;;;;;23.37;67.88;101615.59;5045009;28;20037;-72
2022/08/26 09:48:08;;;;;;;8.90;1.40;;;;;;;23.47;67.08;101610.53;5032924;28;20048;-73
2022/08/26 09:50:51;;;;;;;4.80;1.90;;;;;;;23.47;66.45;101608.72;5019465;28;20061;-73
2022/08/26 09:53:20;;;;;;;9.13;1.65;;;;;;;23.54;66.68;101625.13;5019427;28;20072;-73
2022/08/26 09:55:48;;;;;;;5.38;1.35;;;;;;;23.66;65.71;101613.69;5021391;28;20113;-73
2022/08/26 09:58:29;;;;;;;6.30;1.70;;;;;;;23.68;64.72;101619.81;5020976;28;20040;-73
2022/08/26 10:00:57;;;;;;;4.88;1.85;;;;;;;23.63;65.67;101626.34;5013618;28;20033;-73
2022/08/26 10:03:27;;;;;;;5.82;1.70;;;;;;;23.38;65.54;101614.69;5031686;28;20483;-73
2022/08/26 10:06:01;;;;;;;5.43;1.52;;;;;;;23.32;66.85;101615.06;5032310;28;20112;-73
2022/08/26 10:08:33;;;;;;;5.75;1.55;;;;;;;23.35;66.75;101621.03;5042506;28;20029;-73
2022/08/26 10:11:23;;;;;;;7.55;1.45;;;;;;;23.24;66.94;101612.03;5033041;28;20044;-73
2022/08/26 10:13:59;;;;;;;6.07;1.73;;;;;;;23.18;66.99;101636.38;5031153;28;20436;-74
2022/08/26 10:16:49;;;;;;;4.60;1.75;;;;;;;23.21;66.70;101617.56;5034079;28;20026;-74
2022/08/26 10:19:19;;;;;;;6.85;1.35;;;;;;;23.22;66.86;101616.63;5024988;28;20057;-74
2022/08/26 10:22:14;;;;;;;7.55;1.65;;;;;;;23.41;66.48;101619.75;5031792;28;20031;-74
2022/08/26 10:24:54;;;;;;;8.23;1.60;;;;;;;23.59;66.47;101615.91;5026788;28;20052;-74
2022/08/26 10:27:47;;;;;;;5.40;1.52;;;;;;;23.89;64.84;101617.50;5029885;28;20053;-73
2022/08/26 10:30:17;;;;;;;3.65;1.48;;;;;;;23.98;63.87;101619.56;5028175;28;20064;-73
2022/08/26 10:32:59;;;;;;;7.55;1.30;;;;;;;23.99;63.71;101617.75;5032415;28;20056;-73
2022/08/26 10:35:25;;;;;;;9.55;2.22;;;;;;;24.11;63.06;101622.25;5029667;28;20029;-73
2022/08/26 10:37:55;;;;;;;4.28;1.15;;;;;;;24.11;62.72;101613.41;5032755;28;20021;-73
2022/08/26 10:40:36;;;;;;;7.60;1.48;;;;;;;24.17;62.96;101613.84;5031505;28;20037;-73
2022/08/26 10:43:07;;;;;;;7.43;1.30;;;;;;;24.01;62.36;101613.19;5025487;28;20057;-74
2022/08/26 10:45:37;;;;;;;59.03;4.25;;;;;;;23.95;63.89;101618.91;5033329;28;20068;-73
2022/08/26 10:48:10;;;;;;;6.15;1.45;;;;;;;23.66;62.77;101612.84;5032038;28;20028;-73
2022/08/26 10:50:39;;;;;;;3.15;1.38;;;;;;;23.51;63.96;101612.03;5032246;28;20053;-73
2022/08/26 10:53:15;;;;;;;8.00;1.50;;;;;;;23.33;64.51;101611.44;5037693;28;20413;-73
2022/08/26 10:56:01;;;;;;;6.00;1.30;;;;;;;23.32;64.54;101618.56;5033435;28;20032;-72
2022/08/26 10:58:42;;;;;;;5.70;1.65;;;;;;;23.13;65.06;101607.41;5023597;28;20128;-73
2022/08/26 11:04:24;;;;;;;2.63;1.15;;;;;;;23.09;65.34;101612.06;5050392;28;20036;-73
2022/08/26 11:07:29;;;;;;;6.32;1.20;;;;;;;23.05;64.99;101625.66;5023440;28;20029;-73
2022/08/26 11:09:56;;;;;;;4.90;1.10;;;;;;;22.74;65.41;101610.75;5041861;28;20070;-73
2022/08/26 11:12:34;;;;;;;5.55;1.30;;;;;;;22.74;66.18;101627.56;5042474;28;20025;-73
2022/08/26 11:15:21;;;;;;;5.00;1.42;;;;;;;22.60;67.71;101627.56;5045198;28;20044;-73
2022/08/26 11:17:46;;;;;;;5.25;1.40;;;;;;;22.44;66.81;101617.88;5012109;28;20075;-73
2022/08/26 11:20:27;;;;;;;4.73;1.20;;;;;;;22.37;67.39;101635.13;5052737;28;20071;-73
2022/08/26 11:22:54;;;;;;;9.25;1.50;;;;;;;22.24;67.27;101622.69;5045767;28;20300;-73
2022/08/26 11:25:24;;;;;;;6.03;1.17;;;;;;;22.09;66.97;101614.66;5038674;28;20025;-72
2022/08/26 11:27:54;;;;;;;4.65;1.25;;;;;;;22.13;67.60;101621.47;5047348;28;20192;-73
2022/08/26 11:30:19;;;;;;;4.45;1.20;;;;;;;22.28;68.38;101621.56;5048793;28;20021;-73
2022/08/26 11:32:54;;;;;;;5.45;1.65;;;;;;;22.38;68.24;101626.22;5034719;28;20040;-73
2022/08/26 11:35:19;;;;;;;5.45;1.60;;;;;;;22.54;68.50;101622.63;5049393;28;20047;-73
2022/08/26 11:37:55;;;;;;;4.20;1.37;;;;;;;22.65;67.52;101626.31;5053340;28;20025;-73
2022/08/26 11:40:37;;;;;;;4.22;1.38;;;;;;;22.77;67.48;101626.53;5052102;28;20052;-73
2022/08/26 11:43:07;;;;;;;4.60;1.42;;;;;;;22.68;67.57;101628.78;5052744;28;20021;-73